Time;durP1;ratioP1;P1;durP2;ratioP2;P2;SDS_P1;SDS_P2;PMS_P1;PMS_P2;Temp;Humidity;BMP_temperature;BMP_pressure;BME280_temperature;BME280_humidity;BME280_pressure;Samples;Min_cycle;Max_cycle;Signal;HPM_P1;HPM_P2
2023/11/27 00:00:52;;;;;;;10.90;5.20;;;;;;;-1.34;100.00;98883.78;123776;1108;104022;-81
2023/11/27 00:03:36;;;;;;;16.17;6.80;;;;;;;-1.34;100.00;98879.55;123591;1108;104066;-80
2023/11/27 00:06:10;;;;;;;16.53;6.93;;;;;;;-1.33;100.00;98896.73;122894;1108;104043;-80
2023/11/27 00:08:42;;;;;;;12.95;5.80;;;;;;;-1.36;100.00;98899.14;123132;1107;103980;-80
2023/11/27 00:11:15;;;;;;;15.65;6.90;;;;;;;-1.36;100.00;98880.25;122990;1109;104133;-79
2023/11/27 00:13:47;;;;;;;18.40;7.10;;;;;;;-1.36;100.00;98890.55;123300;1108;104144;-82
2023/11/27 00:16:20;;;;;;;17.20;7.35;;;;;;;-1.36;100.00;98881.13;123244;1106;104178;-79
2023/11/27 00:18:52;;;;;;;15.40;7.00;;;;;;;-1.36;100.00;98881.13;123190;1109;104085;-79
2023/11/27 00:21:27;;;;;;;17.97;6.80;;;;;;;-1.36;100.00;98901.71;123900;1109;104043;-81
2023/11/27 00:24:00;;;;;;;16.53;6.53;;;;;;;-1.36;100.00;98903.41;124168;1109;105325;-80
2023/11/27 00:26:33;;;;;;;12.37;5.53;;;;;;;-1.38;100.00;98887.01;123321;1108;104002;-80
2023/11/27 00:29:05;;;;;;;16.85;6.20;;;;;;;-1.38;100.00;98910.16;123371;1108;104048;-79
2023/11/27 00:31:38;;;;;;;16.37;6.27;;;;;;;-1.40;100.00;98888.58;123652;1108;104088;-82
2023/11/27 00:34:11;;;;;;;13.43;5.80;;;;;;;-1.40;100.00;98897.21;123559;1107;104075;-78
2023/11/27 00:36:44;;;;;;;14.47;6.23;;;;;;;-1.40;100.00;98907.50;123870;1109;104063;-79
2023/11/27 00:39:17;;;;;;;12.07;5.93;;;;;;;-1.40;100.00;98904.02;124019;1108;104146;-79
2023/11/27 00:41:50;;;;;;;10.43;5.43;;;;;;;-1.39;100.00;98927.27;123716;1109;103980;-79
2023/11/27 00:44:22;;;;;;;14.90;6.43;;;;;;;-1.40;100.00;98909.17;123826;1106;103973;-79
2023/11/27 00:46:55;;;;;;;13.77;5.90;;;;;;;-1.41;100.00;98902.27;123448;1109;104110;-79
2023/11/27 00:49:27;;;;;;;12.50;5.75;;;;;;;-1.42;100.00;98913.35;123351;1107;104108;-80
2023/11/27 00:52:00;;;;;;;15.15;5.90;;;;;;;-1.41;100.00;98904.84;123590;1108;104078;-81
2023/11/27 00:54:33;;;;;;;13.93;5.30;;;;;;;-1.42;100.00;98901.36;124059;1108;101968;-79
2023/11/27 00:57:06;;;;;;;13.93;6.27;;;;;;;-1.41;100.00;98905.72;123624;1109;104041;-79
2023/11/27 00:59:40;;;;;;;14.93;5.90;;;;;;;-1.41;100.00;98922.85;123400;1109;104059;-78
2023/11/27 01:02:12;;;;;;;11.20;5.40;;;;;;;-1.44;100.00;98918.41;123448;1107;104069;-82
2023/11/27 01:04:45;;;;;;;11.63;5.50;;;;;;;-1.46;100.00;98946.62;123403;1107;104111;-80
2023/11/27 01:07:18;;;;;;;14.10;5.60;;;;;;;-1.46;100.00;98925.16;123388;1108;104073;-80
2023/11/27 01:09:51;;;;;;;12.63;5.40;;;;;;;-1.47;100.00;98934.55;123238;1106;104066;-81
2023/11/27 01:12:23;;;;;;;11.93;5.37;;;;;;;-1.48;100.00;98911.30;123133;1109;104143;-77
2023/11/27 01:14:55;;;;;;;10.43;5.40;;;;;;;-1.50;100.00;98918.93;123122;1109;104153;-78
2023/11/27 01:17:28;;;;;;;14.00;5.63;;;;;;;-1.49;100.00;98927.56;123197;1109;104168;-76
2023/11/27 01:20:00;;;;;;;10.80;5.57;;;;;;;-1.50;100.00;98915.48;123154;1107;104124;-77
2023/11/27 01:22:34;;;;;;;12.90;5.85;;;;;;;-1.52;100.00;98935.97;123126;1105;104120;-78
2023/11/27 01:25:09;;;;;;;10.37;5.07;;;;;;;-1.52;100.00;98955.67;123378;1105;104025;-78
2023/11/27 01:27:42;;;;;;;12.13;5.30;;;;;;;-1.53;100.00;98962.48;123456;1105;103999;-79
2023/11/27 01:30:18;;;;;;;12.87;5.13;;;;;;;-1.54;100.00;98995.84;123446;1105;104047;-79
2023/11/27 01:32:51;;;;;;;14.00;5.63;;;;;;;-1.53;100.00;98964.18;123594;1105;104258;-79
2023/11/27 01:35:23;;;;;;;12.70;5.57;;;;;;;-1.54;100.00;98955.59;123420;1105;104031;-80
2023/11/27 01:37:56;;;;;;;12.43;5.40;;;;;;;-1.52;100.00;98981.41;123456;1105;104056;-80
2023/11/27 01:40:30;;;;;;;11.27;5.40;;;;;;;-1.52;100.00;98958.25;123551;1105;104066;-79
2023/11/27 01:43:03;;;;;;;13.60;4.73;;;;;;;-1.53;100.00;98952.20;123855;1105;104053;-79
2023/11/27 01:45:35;;;;;;;11.27;4.73;;;;;;;-1.54;100.00;98958.16;124232;1107;104047;-80
2023/11/27 01:48:08;;;;;;;11.97;5.13;;;;;;;-1.56;100.00;98962.30;123652;1105;104015;-79
2023/11/27 01:50:42;;;;;;;10.68;4.70;;;;;;;-1.56;100.00;98964.87;123546;1109;104059;-78
2023/11/27 01:53:15;;;;;;;12.60;5.30;;;;;;;-1.56;100.00;98954.59;123071;1105;104056;-79
2023/11/27 01:55:48;;;;;;;12.00;4.55;;;;;;;-1.56;100.00;98969.14;123224;1106;104165;-79
2023/11/27 01:58:21;;;;;;;12.53;4.93;;;;;;;-1.55;100.00;98976.95;122995;1108;104257;-79
2023/11/27 02:00:53;;;;;;;14.20;5.77;;;;;;;-1.54;100.00;98962.39;123026;1108;104076;-80
2023/11/27 02:03:25;;;;;;;13.13;5.77;;;;;;;-1.54;100.00;98967.54;123098;1108;104063;-79
2023/11/27 02:05:58;;;;;;;12.80;5.67;;;;;;;-1.54;100.00;99000.98;122938;1109;104076;-78
2023/11/27 02:08:31;;;;;;;13.63;6.53;;;;;;;-1.53;100.00;98995.05;123018;1109;104001;-78
2023/11/27 02:11:04;;;;;;;10.28;4.20;;;;;;;-1.54;100.00;98988.13;122956;1109;104028;-78
2023/11/27 02:13:38;;;;;;;10.63;4.67;;;;;;;-1.55;100.00;99022.38;122840;1109;104557;-79
2023/11/27 02:16:12;;;;;;;12.40;4.87;;;;;;;-1.54;100.00;99014.76;122949;1105;104085;-79
2023/11/27 02:18:45;;;;;;;12.73;5.50;;;;;;;-1.54;100.00;99018.98;123091;1105;104073;-80
2023/11/27 02:21:19;;;;;;;11.47;5.47;;;;;;;-1.55;100.00;99012.97;122955;1105;104076;-80
2023/11/27 02:23:55;;;;;;;8.37;4.23;;;;;;;-1.56;100.00;99016.33;123012;1105;104185;-78
2023/11/27 02:26:28;;;;;;;9.05;4.50;;;;;;;-1.56;100.00;99016.33;123022;1109;104150;-80
2023/11/27 02:29:00;;;;;;;8.87;4.33;;;;;;;-1.56;100.00;99036.91;122847;1105;104082;-78
2023/11/27 02:31:33;;;;;;;10.97;4.93;;;;;;;-1.56;100.00;99020.59;123029;1105;104533;-78
2023/11/27 02:34:05;;;;;;;12.13;5.57;;;;;;;-1.56;100.00;99016.33;123036;1105;104124;-79
2023/11/27 02:36:39;;;;;;;13.50;4.80;;;;;;;-1.56;100.00;99026.62;123226;1105;104127;-78
2023/11/27 02:39:14;;;;;;;13.13;5.63;;;;;;;-1.56;100.00;99030.88;123262;1105;104213;-78
2023/11/27 02:41:47;;;;;;;9.73;4.63;;;;;;;-1.56;100.00;99042.05;123058;1105;104149;-78
2023/11/27 02:44:20;;;;;;;9.60;4.37;;;;;;;-1.58;100.00;99041.08;123082;1105;104047;-80
2023/11/27 02:46:52;;;;;;;12.13;5.40;;;;;;;-1.57;100.00;99039.39;123104;1105;103980;-78
2023/11/27 02:49:25;;;;;;;10.60;5.00;;;;;;;-1.57;100.00;99063.45;123096;1106;104459;-78
2023/11/27 02:51:57;;;;;;;9.83;4.30;;;;;;;-1.58;100.00;99053.94;123037;1106;103989;-79
2023/11/27 02:54:29;;;;;;;10.37;4.67;;;;;;;-1.58;100.00;99059.09;123111;1105;103989;-80
2023/11/27 02:57:03;;;;;;;13.10;5.30;;;;;;;-1.57;100.00;99071.17;123114;1106;105394;-79
2023/11/27 02:59:35;;;;;;;11.87;5.00;;;;;;;-1.56;100.00;99085.78;123100;1105;104053;-80
2023/11/27 03:02:08;;;;;;;14.33;5.30;;;;;;;-1.55;100.00;99090.14;123245;1105;104126;-78
2023/11/27 03:04:40;;;;;;;14.53;5.50;;;;;;;-1.54;100.00;99086.79;123329;1108;104169;-80
2023/11/27 03:07:13;;;;;;;14.50;5.10;;;;;;;-1.52;100.00;99105.77;123176;1105;104028;-81
2023/11/27 03:09:47;;;;;;;15.17;5.57;;;;;;;-1.51;100.00;99106.64;123283;1108;104130;-81
2023/11/27 03:12:20;;;;;;;10.20;4.80;;;;;;;-1.50;100.00;99103.29;123072;1109;104046;-79
2023/11/27 03:14:52;;;;;;;13.53;5.10;;;;;;;-1.48;100.00;99109.41;123097;1105;104159;-80
2023/11/27 03:17:24;;;;;;;12.05;5.15;;;;;;;-1.47;100.00;99118.91;123079;1106;104114;-80
2023/11/27 03:19:57;;;;;;;9.90;4.90;;;;;;;-1.46;100.00;99092.41;123118;1105;104041;-80
2023/11/27 03:22:29;;;;;;;10.40;5.47;;;;;;;-1.45;100.00;99112.16;123113;1105;104046;-81
2023/11/27 03:25:02;;;;;;;15.07;6.33;;;;;;;-1.43;100.00;99114.83;123208;1105;104034;-81
2023/11/27 03:27:35;;;;;;;14.77;6.20;;;;;;;-1.42;100.00;99114.05;123045;1105;104206;-80
2023/11/27 03:30:10;;;;;;;14.07;6.37;;;;;;;-1.42;100.00;99116.63;123060;1105;104072;-81
2023/11/27 03:32:42;;;;;;;15.23;6.47;;;;;;;-1.41;100.00;99114.14;123132;1105;104162;-79
2023/11/27 03:35:15;;;;;;;13.83;5.70;;;;;;;-1.41;100.00;99138.99;123128;1109;104124;-79
2023/11/27 03:37:47;;;;;;;13.15;5.40;;;;;;;-1.42;100.00;99129.48;123122;1109;104027;-80
2023/11/27 03:40:20;;;;;;;15.57;6.20;;;;;;;-1.43;100.00;99130.27;123127;1108;104112;-81
2023/11/27 03:42:52;;;;;;;12.80;5.57;;;;;;;-1.42;100.00;99132.06;123041;1105;104060;-79
2023/11/27 03:45:25;;;;;;;14.25;5.75;;;;;;;-1.42;100.00;99142.35;122975;1109;104123;-79
2023/11/27 03:47:58;;;;;;;14.03;6.03;;;;;;;-1.42;100.00;99139.78;122978;1105;105492;-79
2023/11/27 03:50:31;;;;;;;14.50;6.17;;;;;;;-1.43;100.00;99151.77;122929;1106;104617;-79
2023/11/27 03:53:03;;;;;;;12.37;5.60;;;;;;;-1.44;100.00;99155.13;123079;1106;104185;-80
2023/11/27 03:55:36;;;;;;;13.73;5.93;;;;;;;-1.46;100.00;99134.45;123231;1105;104015;-81
2023/11/27 03:58:09;;;;;;;14.20;6.17;;;;;;;-1.46;100.00;99152.45;123280;1105;103977;-80
2023/11/27 04:00:42;;;;;;;14.77;5.90;;;;;;;-1.46;100.00;99162.75;123225;1105;104060;-81
2023/11/27 04:03:14;;;;;;;15.93;6.27;;;;;;;-1.46;100.00;99167.89;123219;1105;104060;-80
2023/11/27 04:05:47;;;;;;;14.17;6.10;;;;;;;-1.45;100.00;99179.06;123244;1106;104000;-78
2023/11/27 04:08:20;;;;;;;12.53;5.53;;;;;;;-1.46;100.00;99162.75;123324;1105;103996;-78
2023/11/27 04:10:54;;;;;;;13.23;5.50;;;;;;;-1.46;100.00;99167.89;123267;1108;104172;-80
2023/11/27 04:13:30;;;;;;;11.73;5.37;;;;;;;-1.45;100.00;99177.41;123138;1105;104146;-78
2023/11/27 04:16:03;;;;;;;12.47;5.60;;;;;;;-1.45;100.00;99176.49;123010;1105;104194;-80
2023/11/27 04:18:36;;;;;;;12.00;5.53;;;;;;;-1.44;100.00;99193.72;122915;1105;104117;-77
2023/11/27 04:21:10;;;;;;;14.00;5.50;;;;;;;-1.43;100.00;99162.06;122968;1105;104043;-79
2023/11/27 04:23:42;;;;;;;12.23;5.83;;;;;;;-1.43;100.00;99174.02;123006;1109;104185;-80
2023/11/27 04:26:15;;;;;;;13.60;5.93;;;;;;;-1.42;100.00;99168.96;122934;1106;104094;-78
2023/11/27 04:28:48;;;;;;;10.67;5.20;;;;;;;-1.43;100.00;99169.78;123012;1108;104172;-79
2023/11/27 04:31:20;;;;;;;9.73;4.70;;;;;;;-1.43;100.00;99172.35;123059;1107;104124;-79
2023/11/27 04:33:53;;;;;;;13.17;5.80;;;;;;;-1.42;100.00;99189.55;123076;1107;104072;-79
2023/11/27 04:36:26;;;;;;;13.70;5.80;;;;;;;-1.42;100.00;99183.52;123093;1106;104063;-79
2023/11/27 04:38:59;;;;;;;13.87;5.63;;;;;;;-1.41;100.00;99177.59;123271;1105;104046;-78
2023/11/27 04:41:31;;;;;;;13.70;5.50;;;;;;;-1.41;100.00;99186.19;123140;1105;104069;-80
2023/11/27 04:44:04;;;;;;;13.37;5.50;;;;;;;-1.39;100.00;99186.28;123151;1105;104025;-79
2023/11/27 04:46:36;;;;;;;13.57;6.00;;;;;;;-1.38;100.00;99195.80;123123;1105;104140;-79
2023/11/27 04:49:11;;;;;;;11.97;5.00;;;;;;;-1.40;100.00;99198.27;123032;1105;104149;-80
2023/11/27 04:51:43;;;;;;;12.47;5.67;;;;;;;-1.40;100.00;99197.36;123075;1106;104452;-79
2023/11/27 04:54:16;;;;;;;11.27;5.10;;;;;;;-1.42;100.00;99202.41;123071;1105;104009;-80
2023/11/27 04:56:48;;;;;;;12.20;5.23;;;;;;;-1.43;100.00;99200.66;123372;1105;104200;-84
2023/11/27 04:59:21;;;;;;;12.17;4.57;;;;;;;-1.42;100.00;99211.83;123272;1105;105006;-80
2023/11/27 05:01:54;;;;;;;9.33;4.37;;;;;;;-1.44;100.00;99216.87;123436;1109;104031;-84
2023/11/27 05:04:26;;;;;;;10.37;5.33;;;;;;;-1.44;100.00;99232.31;123328;1107;104065;-82
2023/11/27 05:06:59;;;;;;;12.30;5.43;;;;;;;-1.45;100.00;99231.44;123225;1106;104075;-83
2023/11/27 05:09:32;;;;;;;13.23;5.47;;;;;;;-1.44;100.00;99219.45;123287;1105;104124;-82
2023/11/27 05:12:06;;;;;;;10.87;5.30;;;;;;;-1.44;100.00;99232.31;123272;1105;104008;-79
2023/11/27 05:14:39;;;;;;;13.95;5.10;;;;;;;-1.43;100.00;99218.67;123164;1105;104030;-80
2023/11/27 05:17:12;;;;;;;11.35;4.90;;;;;;;-1.43;100.00;99223.81;123129;1108;104133;-81
2023/11/27 05:19:45;;;;;;;12.07;4.75;;;;;;;-1.42;100.00;99240.13;123297;1105;104142;-84
2023/11/27 05:22:18;;;;;;;10.17;4.57;;;;;;;-1.43;100.00;99234.11;123593;1105;104022;-79
2023/11/27 05:24:50;;;;;;;8.40;3.70;;;;;;;-1.43;100.00;99244.40;124014;1105;104040;-80
2023/11/27 05:27:24;;;;;;;8.90;4.60;;;;;;;-1.41;100.00;99239.35;123764;1105;104073;-83
2023/11/27 05:29:56;;;;;;;11.40;5.13;;;;;;;-1.41;100.00;99247.07;123714;1105;104043;-78
2023/11/27 05:32:29;;;;;;;11.90;4.73;;;;;;;-1.38;100.00;99253.29;123663;1103;104002;-80
2023/11/27 05:35:03;;;;;;;10.53;4.97;;;;;;;-1.37;100.00;99251.59;123638;1106;104187;-79
2023/11/27 05:37:35;;;;;;;10.82;4.58;;;;;;;-1.37;100.00;99249.02;124427;1105;104031;-79
2023/11/27 05:40:10;;;;;;;9.37;4.37;;;;;;;-1.37;100.00;99246.45;124670;1105;101583;-80
2023/11/27 05:42:43;;;;;;;10.93;4.40;;;;;;;-1.37;100.00;99257.66;125084;1105;104047;-80
2023/11/27 05:45:16;;;;;;;9.53;4.70;;;;;;;-1.36;100.00;99264.56;124472;1105;104552;-80
2023/11/27 05:47:49;;;;;;;13.22;5.00;;;;;;;-1.35;100.00;99273.19;123881;1105;103970;-78
2023/11/27 05:50:22;;;;;;;11.10;4.97;;;;;;;-1.35;100.00;99286.94;124749;1105;104060;-78
2023/11/27 05:52:56;;;;;;;8.47;4.37;;;;;;;-1.33;100.00;99289.61;125649;1096;104022;-77
2023/11/27 05:55:28;;;;;;;;;;;;;;;-1.32;100.00;99293.97;124976;1105;101871;-78
2023/11/27 05:58:02;;;;;;;6.20;3.63;;;;;;;-1.32;100.00;99288.83;124063;1109;104242;-77
2023/11/27 06:00:34;;;;;;;9.67;4.10;;;;;;;-1.30;100.00;99282.08;125147;1105;103970;-76
2023/11/27 06:03:08;;;;;;;8.88;4.75;;;;;;;-1.30;100.00;99294.95;123905;1106;104095;-77
2023/11/27 06:05:41;;;;;;;10.70;4.10;;;;;;;-1.30;100.00;99310.39;124014;1106;104073;-75
2023/11/27 06:08:14;;;;;;;7.80;4.30;;;;;;;-1.29;100.00;99314.76;125372;1096;101557;-77
2023/11/27 06:10:47;;;;;;;10.13;4.37;;;;;;;-1.28;100.00;99319.09;125265;1105;101883;-75
2023/11/27 06:13:21;;;;;;;11.70;4.60;;;;;;;-1.25;100.00;99316.71;125212;1105;104156;-77
2023/11/27 06:15:54;;;;;;;8.78;4.00;;;;;;;-1.22;100.00;99326.33;125342;1109;103455;-77
2023/11/27 06:18:27;;;;;;;9.48;4.65;;;;;;;-1.19;100.00;99329.09;124988;1109;104003;-78
2023/11/27 06:21:00;;;;;;;9.57;4.10;;;;;;;-1.15;100.00;99333.66;124686;1105;103974;-77
2023/11/27 06:23:52;;;;;;;8.67;3.93;;;;;;;-1.12;100.00;99339.88;124855;1108;101946;-76
2023/11/27 06:26:25;;;;;;;8.77;4.40;;;;;;;-1.09;100.00;99334.05;124629;1105;103980;-76
2023/11/27 06:28:57;;;;;;;9.73;4.43;;;;;;;-1.06;100.00;99339.38;124554;1105;101830;-76
2023/11/27 06:34:16;;;;;;;10.57;4.30;;;;;;;-0.97;100.00;99337.36;125038;1105;103919;-77
2023/11/27 06:36:49;;;;;;;7.93;4.00;;;;;;;-0.94;100.00;99345.27;124950;1105;101826;-77
2023/11/27 06:39:26;;;;;;;8.53;4.10;;;;;;;-0.90;100.00;99341.23;124997;1105;104077;-77
2023/11/27 06:41:59;;;;;;;9.67;4.33;;;;;;;-0.83;100.00;99339.91;124933;1105;107949;-77
2023/11/27 06:44:32;;;;;;;9.80;4.20;;;;;;;-0.78;100.00;99347.14;124879;1109;102583;-76
2023/11/27 06:47:08;;;;;;;10.20;4.78;;;;;;;-0.75;100.00;99352.48;124304;1105;103345;-76
2023/11/27 06:49:41;;;;;;;8.50;4.13;;;;;;;-0.74;100.00;99369.70;124396;1105;103938;-76
2023/11/27 06:52:13;;;;;;;9.53;4.17;;;;;;;-0.73;100.00;99356.03;124937;1106;119701;-77
2023/11/27 06:54:46;;;;;;;6.97;4.00;;;;;;;-0.70;100.00;99354.44;124652;1105;102469;-77
2023/11/27 06:57:21;;;;;;;10.27;4.13;;;;;;;-0.65;100.00;99358.20;125112;1105;102078;-77
2023/11/27 06:59:55;;;;;;;10.00;4.70;;;;;;;-0.61;100.00;99352.42;124255;1106;101984;-78
2023/11/27 07:02:30;;;;;;;11.20;4.25;;;;;;;-0.56;100.00;99353.63;124519;1105;104000;-76
2023/11/27 07:05:06;;;;;;;9.93;4.53;;;;;;;-0.53;100.00;99356.39;125013;1105;102425;-76
2023/11/27 07:07:38;;;;;;;10.45;4.15;;;;;;;-0.52;100.00;99358.14;124625;1105;102104;-77
2023/11/27 07:10:13;;;;;;;7.20;4.17;;;;;;;-0.51;100.00;99359.94;124450;1105;103970;-77
2023/11/27 07:12:46;;;;;;;8.33;4.30;;;;;;;-0.49;100.00;99358.33;124035;1105;110775;-76
2023/11/27 07:15:19;;;;;;;9.93;4.30;;;;;;;-0.45;100.00;99365.47;124494;1105;104437;-75
2023/11/27 07:18:03;;;;;;;9.13;4.40;;;;;;;-0.40;100.00;99365.75;124380;1105;102597;-77
2023/11/27 07:20:40;;;;;;;11.80;4.80;;;;;;;-0.37;100.00;99377.13;124795;1106;102048;-77
2023/11/27 07:23:12;;;;;;;9.57;3.80;;;;;;;-0.32;100.00;99381.68;124765;1105;102677;-75
2023/11/27 07:25:46;;;;;;;9.73;4.50;;;;;;;-0.30;100.00;99387.81;124598;1105;101940;-75
2023/11/27 07:28:20;;;;;;;5.70;3.37;;;;;;;-0.28;100.00;99391.36;124392;1106;102177;-76
2023/11/27 07:30:56;;;;;;;8.13;4.20;;;;;;;-0.26;100.00;99394.94;124814;1105;104037;-76
2023/11/27 07:33:30;;;;;;;8.87;4.07;;;;;;;-0.24;100.00;99388.18;124739;1105;102101;-76
2023/11/27 07:36:04;;;;;;;8.73;4.27;;;;;;;-0.22;100.00;99397.80;124665;1109;102054;-75
2023/11/27 07:38:40;;;;;;;9.40;3.87;;;;;;;-0.21;100.00;99391.83;124955;1106;103949;-76
2023/11/27 07:41:19;;;;;;;6.47;3.57;;;;;;;-0.16;100.00;99404.12;124341;1105;102370;-76
2023/11/27 07:43:58;;;;;;;8.00;3.80;;;;;;;-0.14;100.00;99387.95;124176;1105;104111;-76
2023/11/27 07:46:36;;;;;;;8.03;4.03;;;;;;;-0.11;100.00;99377.83;125126;1105;102848;-77
2023/11/27 07:49:10;;;;;;;8.80;4.00;;;;;;;-0.09;100.00;99383.08;124904;1105;102593;-77
2023/11/27 07:51:43;;;;;;;9.27;3.83;;;;;;;-0.06;100.00;99378.09;124822;1105;103973;-77
2023/11/27 07:54:25;;;;;;;8.40;4.07;;;;;;;-0.03;100.00;99392.05;124912;1105;104069;-75
2023/11/27 07:56:58;;;;;;;10.40;4.30;;;;;;;-0.05;100.00;99391.09;124709;1105;103346;-76
2023/11/27 07:59:31;;;;;;;9.73;4.00;;;;;;;0.02;100.00;99399.16;123920;1109;103371;-76
2023/11/27 08:02:05;;;;;;;8.50;4.10;;;;;;;0.04;100.00;99400.16;124575;1105;104047;-77
2023/11/27 08:04:40;;;;;;;8.70;4.20;;;;;;;0.07;100.00;99390.03;124404;1105;101731;-77
2023/11/27 08:07:14;;;;;;;7.43;3.80;;;;;;;0.11;100.00;99384.23;124435;1105;101941;-76
2023/11/27 08:09:50;;;;;;;7.40;3.60;;;;;;;0.12;100.00;99394.64;124111;1105;104070;-75
2023/11/27 08:12:22;;;;;;;6.37;3.20;;;;;;;0.14;100.00;99397.31;124439;1109;104054;-75
2023/11/27 08:14:55;;;;;;;6.03;3.30;;;;;;;0.13;100.00;99380.95;124304;1105;104070;-75
2023/11/27 08:17:28;;;;;;;6.27;3.00;;;;;;;0.14;100.00;99399.89;124813;1105;101975;-77
2023/11/27 08:20:06;;;;;;;6.77;3.63;;;;;;;0.14;100.00;99394.73;124726;1109;101894;-76
2023/11/27 08:22:39;;;;;;;6.77;3.40;;;;;;;0.15;100.00;99394.82;124728;1105;102093;-75
2023/11/27 08:25:17;;;;;;;7.43;3.67;;;;;;;0.17;100.00;99412.97;124336;1105;101996;-78
2023/11/27 08:27:53;;;;;;;7.73;3.93;;;;;;;0.17;100.00;99406.14;123848;1105;104066;-76
2023/11/27 08:30:32;;;;;;;7.00;3.10;;;;;;;0.21;100.00;99414.06;124257;1105;103977;-79
2023/11/27 08:33:07;;;;;;;6.40;3.80;;;;;;;0.15;100.00;99414.58;124281;1105;102456;-76
2023/11/27 08:35:44;;;;;;;5.47;3.13;;;;;;;0.09;100.00;99409.93;124084;1105;103980;-77
2023/11/27 08:38:30;;;;;;;6.87;3.53;;;;;;;0.09;100.00;99417.67;124259;1105;104072;-78
2023/11/27 08:41:21;;;;;;;7.27;2.97;;;;;;;0.15;100.00;99430.94;124132;1104;103973;-77
2023/11/27 08:44:12;;;;;;;7.60;3.20;;;;;;;0.21;100.00;99435.59;123945;1108;104005;-78
2023/11/27 08:46:47;;;;;;;8.63;3.40;;;;;;;0.25;100.00;99432.40;124260;1105;102431;-77
2023/11/27 08:49:36;;;;;;;5.43;3.20;;;;;;;0.29;100.00;99421.44;124193;1105;104201;-77
2023/11/27 08:52:18;;;;;;;9.73;3.53;;;;;;;0.31;100.00;99425.02;125593;1105;102428;-77
2023/11/27 08:54:53;;;;;;;5.67;3.23;;;;;;;0.37;100.00;99431.34;125556;1109;101605;-81
2023/11/27 08:57:26;;;;;;;8.20;3.20;;;;;;;0.42;100.00;99424.74;125567;1105;102340;-77
2023/11/27 09:00:02;;;;;;;7.07;3.23;;;;;;;0.46;100.00;99431.88;125779;1104;102123;-77
2023/11/27 09:02:38;;;;;;;6.73;3.10;;;;;;;0.52;100.00;99429.66;125679;1105;102646;-77
2023/11/27 09:05:13;;;;;;;7.10;3.10;;;;;;;0.58;100.00;99449.75;125625;1105;108756;-77
2023/11/27 09:07:53;;;;;;;6.50;3.57;;;;;;;0.57;100.00;99443.71;124383;1105;101833;-79
2023/11/27 09:10:28;;;;;;;7.53;3.40;;;;;;;0.53;100.00;99434.00;124196;1105;104088;-79
2023/11/27 09:13:06;;;;;;;12.33;3.50;;;;;;;0.52;100.00;99424.49;124193;1109;104046;-78
2023/11/27 09:16:12;;;;;;;6.17;3.10;;;;;;;0.49;98.97;99403.66;123877;1109;102271;-78
2023/11/27 09:19:17;;;;;;;7.67;3.40;;;;;;;0.48;99.14;99438.92;124286;1109;103217;-77
2023/11/27 09:22:00;;;;;;;5.87;3.10;;;;;;;0.59;100.00;99436.05;124277;1105;104150;-77
2023/11/27 09:24:34;;;;;;;8.77;3.57;;;;;;;0.67;99.95;99435.71;124263;1106;105640;-79
2023/11/27 09:27:37;;;;;;;6.73;3.03;;;;;;;0.74;99.89;99443.81;124371;1105;103986;-78
2023/11/27 09:30:25;;;;;;;8.03;3.40;;;;;;;0.89;99.08;99457.61;124497;1105;104182;-78
2023/11/27 09:33:01;;;;;;;7.10;3.47;;;;;;;1.00;100.00;99453.06;124284;1108;104197;-77
2023/11/27 09:35:34;;;;;;;8.25;3.30;;;;;;;1.09;100.00;99453.55;124292;1105;103970;-79
2023/11/27 09:38:12;;;;;;;6.60;3.43;;;;;;;1.10;98.07;99469.96;124013;1105;104089;-76
2023/11/27 09:40:45;;;;;;;5.27;3.10;;;;;;;1.12;95.68;99473.51;123786;1106;102236;-76
2023/11/27 09:43:19;;;;;;;4.20;2.65;;;;;;;1.15;97.57;99473.69;123635;1105;102577;-78
2023/11/27 09:45:57;;;;;;;;;;;;;;;1.16;97.63;99467.72;123771;1106;107676;-77
2023/11/27 09:48:34;;;;;;;9.33;3.60;;;;;;;1.17;96.87;99482.41;123718;1105;103947;-78
2023/11/27 09:51:12;;;;;;;9.87;3.30;;;;;;;1.19;95.09;99475.65;123672;1105;104117;-78
2023/11/27 09:53:51;;;;;;;6.80;2.67;;;;;;;1.18;95.62;99464.41;123940;1105;103970;-80
2023/11/27 09:56:29;;;;;;;6.50;3.03;;;;;;;1.21;95.20;99476.62;123939;1105;118479;-77
2023/11/27 09:59:32;;;;;;;7.77;2.60;;;;;;;1.25;95.26;99465.66;124028;1105;103362;-79
2023/11/27 10:02:16;;;;;;;5.80;3.17;;;;;;;1.29;95.66;99483.09;124209;1106;104029;-79
2023/11/27 10:05:05;;;;;;;4.50;2.77;;;;;;;1.34;95.40;99471.34;124310;1105;104037;-79
2023/11/27 10:07:40;;;;;;;6.17;2.77;;;;;;;1.37;95.71;99466.34;125777;1105;102263;-79
2023/11/27 10:10:16;;;;;;;6.93;2.77;;;;;;;1.43;95.98;99476.11;124358;1105;104329;-77
2023/11/27 10:12:54;;;;;;;4.67;2.57;;;;;;;1.46;93.59;99470.23;123725;1109;103945;-79
2023/11/27 10:15:27;;;;;;;5.20;2.65;;;;;;;1.43;95.49;99477.03;123895;1105;103947;-78
2023/11/27 10:18:02;;;;;;;4.40;2.80;;;;;;;1.43;92.33;99477.03;123680;1104;104050;-76
2023/11/27 10:20:39;;;;;;;5.20;2.80;;;;;;;1.44;94.06;99477.91;124377;1105;103278;-75
2023/11/27 10:23:15;;;;;;;6.57;3.10;;;;;;;1.44;93.15;99488.25;123837;1109;103984;-77
2023/11/27 10:25:59;;;;;;;4.40;2.80;;;;;;;1.41;92.96;99476.03;123963;1105;103999;-76
2023/11/27 10:28:48;;;;;;;5.42;2.70;;;;;;;1.43;89.80;99487.38;123657;1105;104130;-76
2023/11/27 10:31:23;;;;;;;5.57;2.50;;;;;;;1.41;90.08;99485.49;125527;1106;101720;-77
2023/11/27 10:34:06;;;;;;;3.87;2.50;;;;;;;1.37;89.58;99494.78;125528;1105;102542;-77
2023/11/27 10:36:43;;;;;;;7.00;2.60;;;;;;;1.37;90.17;99507.70;125652;1105;103509;-77
2023/11/27 10:39:18;;;;;;;4.13;2.73;;;;;;;1.48;90.86;99486.71;125655;1105;102368;-76
2023/11/27 10:41:55;;;;;;;6.33;2.80;;;;;;;1.58;91.65;99489.02;125671;1105;101377;-77
2023/11/27 10:44:38;;;;;;;5.03;2.87;;;;;;;1.71;91.75;99501.79;125684;1105;102386;-79
2023/11/27 10:47:12;;;;;;;4.90;3.00;;;;;;;1.70;86.28;99486.19;125691;1105;101356;-77
2023/11/27 10:49:45;;;;;;;8.27;3.40;;;;;;;1.75;88.98;99479.59;125654;1104;102579;-78
2023/11/27 10:52:19;;;;;;;5.55;2.95;;;;;;;1.78;89.63;99470.30;125634;1105;102496;-80
2023/11/27 10:54:57;;;;;;;5.80;2.80;;;;;;;1.87;89.35;99461.23;125733;1105;102415;-78
2023/11/27 10:57:43;;;;;;;4.03;2.57;;;;;;;1.90;87.44;99480.42;125462;1105;112420;-78
2023/11/27 11:00:39;;;;;;;4.93;2.87;;;;;;;1.84;86.56;99474.01;125433;1106;101898;-78
2023/11/27 11:03:24;;;;;;;5.57;2.70;;;;;;;1.66;85.00;99490.31;125529;1105;102682;-77
2023/11/27 11:05:59;;;;;;;3.93;2.57;;;;;;;1.65;86.84;99492.81;125247;1105;102332;-79
2023/11/27 11:08:34;;;;;;;5.13;2.80;;;;;;;1.70;88.45;99465.50;125540;1105;101727;-78
2023/11/27 11:11:08;;;;;;;6.20;3.07;;;;;;;1.78;89.53;99498.75;125381;1106;102410;-79
2023/11/27 11:13:41;;;;;;;5.40;2.70;;;;;;;1.84;88.19;99486.94;125633;1105;102053;-79
2023/11/27 11:16:26;;;;;;;4.90;3.00;;;;;;;1.81;88.33;99474.75;125549;1106;102092;-79
2023/11/27 11:19:14;;;;;;;5.23;2.63;;;;;;;1.81;88.89;99485.10;125676;1105;102430;-80
2023/11/27 11:22:15;;;;;;;4.97;2.60;;;;;;;1.85;85.73;99480.97;124680;1105;104024;-78
2023/11/27 11:25:09;;;;;;;5.70;2.70;;;;;;;1.79;82.72;99477.26;124358;1105;102625;-78
2023/11/27 11:28:27;;;;;;;3.10;2.30;;;;;;;1.82;87.44;99480.80;124323;1105;104147;-78
2023/11/27 11:31:38;;;;;;;4.27;2.77;;;;;;;1.75;83.71;99480.47;124294;1105;104102;-76
2023/11/27 11:34:37;;;;;;;5.30;2.60;;;;;;;1.64;84.45;99480.68;123859;1109;103980;-77
2023/11/27 11:37:15;;;;;;;4.97;2.77;;;;;;;1.53;85.27;99501.69;124133;1105;104040;-78
2023/11/27 11:39:53;;;;;;;6.20;3.40;;;;;;;1.54;86.45;99499.98;124150;1106;104013;-78
2023/11/27 11:43:03;;;;;;;6.53;2.90;;;;;;;1.55;85.51;99507.82;124186;1104;104071;-77
2023/11/27 11:45:47;;;;;;;7.10;2.77;;;;;;;1.44;82.83;99509.81;124144;1109;104040;-79
2023/11/27 11:48:49;;;;;;;4.13;2.80;;;;;;;1.42;86.17;99508.84;124906;1105;103929;-79
2023/11/27 11:51:28;;;;;;;7.07;3.43;;;;;;;1.40;86.00;99496.63;125608;1105;103218;-78